createdAt,value
2017-09-13T00:03:18.141Z,99.99
2017-09-13T00:08:14.931Z,99.99
2017-09-13T00:13:11.646Z,99.99
2017-09-13T00:18:07.118Z,99.99
2017-09-13T00:23:03.274Z,99.99
2017-09-13T00:27:59.109Z,99.99
2017-09-13T00:32:54.970Z,99.99
2017-09-13T00:37:50.865Z,99.99
2017-09-13T00:42:47.599Z,99.99
2017-09-13T00:47:42.953Z,99.99
2017-09-13T00:52:39.122Z,99.99
2017-09-13T00:57:35.839Z,99.99
2017-09-13T01:02:32.492Z,99.99
2017-09-13T01:07:28.790Z,99.99
2017-09-13T01:12:24.437Z,99.99
2017-09-13T01:17:20.117Z,99.99
2017-09-13T01:22:15.664Z,99.99
2017-09-13T01:27:12.933Z,99.99
2017-09-13T01:32:09.574Z,99.99
2017-09-13T01:37:05.777Z,99.99
2017-09-13T01:42:01.618Z,99.99
2017-09-13T01:46:57.489Z,99.99
2017-09-13T01:51:53.366Z,99.99
2017-09-13T01:56:50.582Z,99.99
2017-09-13T02:01:47.294Z,99.99
2017-09-13T02:06:42.741Z,99.99
2017-09-13T02:11:39.575Z,99.99
2017-09-13T02:16:35.258Z,99.99
2017-09-13T02:21:31.095Z,99.99
2017-09-13T02:26:27.796Z,99.99
2017-09-13T02:31:24.238Z,99.99
2017-09-13T02:36:19.512Z,99.99
2017-09-13T02:41:17.226Z,99.99
2017-09-13T02:46:12.719Z,99.99
2017-09-13T02:51:09.440Z,99.99
2017-09-13T02:56:06.297Z,99.99
2017-09-13T03:01:01.515Z,99.99
2017-09-13T03:05:57.287Z,99.99
2017-09-13T03:10:52.969Z,99.99
2017-09-13T03:15:49.763Z,99.99
2017-09-13T03:20:45.332Z,99.99
2017-09-13T03:25:42.098Z,99.99
2017-09-13T03:30:37.650Z,99.99
2017-09-13T03:35:33.434Z,99.99
2017-09-13T03:40:29.389Z,99.99
2017-09-13T03:45:25.013Z,99.99
2017-09-13T03:50:21.034Z,99.99
2017-09-13T03:55:16.950Z,99.99
2017-09-13T04:00:13.774Z,99.99
2017-09-13T04:05:10.622Z,99.99
2017-09-13T04:10:06.189Z,99.99
2017-09-13T04:15:02.070Z,99.99
2017-09-13T04:19:58.157Z,99.99
2017-09-13T04:24:53.802Z,99.99
2017-09-13T04:29:50.594Z,99.99
2017-09-13T04:34:46.054Z,99.99
2017-09-13T04:39:41.937Z,99.99
2017-09-13T04:44:37.730Z,99.99
2017-09-13T04:49:34.450Z,99.99
2017-09-13T04:54:30.199Z,99.99
2017-09-13T04:59:25.984Z,99.99
2017-09-13T05:04:21.515Z,99.99
2017-09-13T05:09:17.483Z,99.99
2017-09-13T05:14:13.748Z,99.99
2017-09-13T05:19:09.621Z,99.99
2017-09-13T05:24:06.506Z,99.99
2017-09-13T05:29:03.021Z,99.99
2017-09-13T05:33:58.585Z,99.99
2017-09-13T05:38:54.624Z,99.99
2017-09-13T05:43:49.932Z,99.99
2017-09-13T05:48:45.795Z,99.99
2017-09-13T05:53:43.205Z,99.99
2017-09-13T05:58:39.905Z,99.99
2017-09-13T06:03:36.634Z,99.99
2017-09-13T06:08:31.857Z,99.99
2017-09-13T06:13:27.631Z,99.99
2017-09-13T06:18:24.052Z,99.99
2017-09-13T06:23:19.819Z,99.99
2017-09-13T06:28:16.282Z,99.99
2017-09-13T06:33:12.258Z,99.99
2017-09-13T06:38:08.942Z,99.99
2017-09-13T06:43:04.464Z,99.99
2017-09-13T06:48:00.228Z,99.99
2017-09-13T06:52:56.786Z,99.99
2017-09-13T06:57:54.894Z,99.99
2017-09-13T07:02:50.727Z,99.99
2017-09-13T07:07:46.677Z,99.99
2017-09-13T07:12:42.837Z,99.99
2017-09-13T07:17:39.275Z,99.99
2017-09-13T07:22:35.224Z,99.99
2017-09-13T07:27:31.484Z,99.99
2017-09-13T07:32:27.693Z,99.99
2017-09-13T07:37:24.162Z,99.99
2017-09-13T07:42:21.255Z,99.99
2017-09-13T07:47:16.883Z,99.99
2017-09-13T07:52:13.109Z,99.99
2017-09-13T07:57:09.614Z,99.99
2017-09-13T08:02:06.308Z,99.99
2017-09-13T08:07:01.905Z,99.99
2017-09-13T08:11:57.894Z,99.99
2017-09-13T08:16:54.728Z,99.99
2017-09-13T08:21:50.673Z,99.99
2017-09-13T08:26:47.349Z,99.99
2017-09-13T08:31:43.224Z,99.99
2017-09-13T08:36:40.133Z,99.99
2017-09-13T08:41:36.277Z,99.99
2017-09-13T08:46:32.539Z,99.99
2017-09-13T08:51:29.693Z,99.99
2017-09-13T08:56:26.573Z,99.99
2017-09-13T09:01:22.212Z,99.99
2017-09-13T09:06:17.624Z,99.99
2017-09-13T09:11:14.660Z,99.99
2017-09-13T09:16:10.108Z,99.99
2017-09-13T09:21:05.830Z,99.99
2017-09-13T09:26:01.692Z,99.99
2017-09-13T09:30:57.328Z,99.99
2017-09-13T09:35:53.855Z,99.99
2017-09-13T09:40:49.263Z,99.99
2017-09-13T09:45:45.447Z,99.99
2017-09-13T09:50:43.086Z,99.99
2017-09-13T09:55:38.171Z,99.99
2017-09-13T10:00:33.439Z,99.99
2017-09-13T10:05:29.043Z,99.99
2017-09-13T10:10:25.017Z,99.99
2017-09-13T10:15:21.788Z,99.99
2017-09-13T10:20:19.335Z,99.99
2017-09-13T10:25:15.534Z,99.99
2017-09-13T10:30:11.950Z,99.99
2017-09-13T10:35:08.116Z,99.99
2017-09-13T10:40:03.987Z,99.99
2017-09-13T10:45:00.112Z,99.34
2017-09-13T10:49:57.330Z,88.59
2017-09-13T10:54:55.464Z,81.32
2017-09-13T10:59:52.788Z,78.28
2017-09-13T11:04:50.374Z,79.94
2017-09-13T11:09:45.909Z,80.99
2017-09-13T11:14:41.865Z,70.94
2017-09-13T11:19:40.101Z,68.48
2017-09-13T11:24:36.108Z,68.83
2017-09-13T11:29:31.305Z,70.68
2017-09-13T11:34:26.410Z,73.52
2017-09-13T11:39:22.219Z,72.22
2017-09-13T11:44:19.671Z,68.06
2017-09-13T11:49:16.555Z,66.61
2017-09-13T11:54:12.870Z,68.41
2017-09-13T11:59:09.066Z,69.69
2017-09-13T12:04:04.295Z,68.70
2017-09-13T12:09:00.465Z,69.60
2017-09-13T12:13:56.040Z,68.89
2017-09-13T12:18:51.724Z,68.57
2017-09-13T12:23:46.681Z,66.55
2017-09-13T12:28:42.336Z,65.01
2017-09-13T12:33:37.927Z,64.79
2017-09-13T12:38:33.398Z,66.74
2017-09-13T12:43:31.438Z,63.57
2017-09-13T12:48:27.883Z,64.18
2017-09-13T12:53:24.519Z,62.55
2017-09-13T12:58:21.211Z,63.41
2017-09-13T13:03:16.699Z,63.32
2017-09-13T13:08:12.961Z,64.63
2017-09-13T13:13:09.690Z,65.14
2017-09-13T13:18:05.348Z,64.15
2017-09-13T13:23:01.460Z,63.19
2017-09-13T13:27:58.440Z,62.04
2017-09-13T13:32:54.794Z,62.68
2017-09-13T13:37:50.529Z,64.31
2017-09-13T13:42:46.161Z,63.16
2017-09-13T13:47:41.997Z,63.45
2017-09-13T13:52:40.043Z,63.54
2017-09-13T13:57:35.665Z,63.35
2017-09-13T14:02:31.085Z,62.77
2017-09-13T14:07:28.015Z,62.29
2017-09-13T14:12:25.646Z,61.81
2017-09-13T14:17:21.008Z,62.96
2017-09-13T14:22:16.792Z,64.40
2017-09-13T14:27:12.890Z,64.79
2017-09-13T14:32:09.595Z,66.23
2017-09-13T14:37:04.994Z,64.89
2017-09-13T14:42:00.949Z,65.75
2017-09-13T14:46:56.837Z,65.17
2017-09-13T14:51:52.644Z,65.08
2017-09-13T14:56:49.811Z,65.65
2017-09-13T15:01:45.318Z,65.84
2017-09-13T15:06:41.033Z,66.33
2017-09-13T15:11:36.856Z,66.03
2017-09-13T15:16:34.031Z,67.38
2017-09-13T15:21:30.423Z,66.90
2017-09-13T15:26:25.852Z,68.24
2017-09-13T15:31:21.745Z,68.12
2017-09-13T15:36:17.592Z,70.51
2017-09-13T15:41:13.218Z,71.19
2017-09-13T15:46:09.248Z,71.53
2017-09-13T15:51:04.856Z,71.95
2017-09-13T15:56:01.075Z,70.38
2017-09-13T16:00:56.761Z,70.48
2017-09-13T16:05:52.775Z,70.19
2017-09-13T16:10:48.652Z,71.50
2017-09-13T16:15:44.806Z,72.94
2017-09-13T16:20:40.991Z,74.57
2017-09-13T16:25:37.628Z,74.37
2017-09-13T16:30:33.648Z,75.81
2017-09-13T16:35:29.467Z,77.02
2017-09-13T16:40:25.169Z,77.31
2017-09-13T16:45:21.649Z,78.93
2017-09-13T16:50:18.330Z,81.52
2017-09-13T16:55:13.849Z,84.78
2017-09-13T17:00:10.666Z,85.16
2017-09-13T17:05:06.305Z,87.84
2017-09-13T17:10:02.198Z,87.46
2017-09-13T17:14:57.941Z,87.65
2017-09-13T17:19:53.663Z,87.51
2017-09-13T17:24:50.406Z,87.03
2017-09-13T17:29:47.012Z,88.09
2017-09-13T17:34:43.422Z,91.82
2017-09-13T17:39:39.100Z,96.80
2017-09-13T17:44:35.860Z,98.86
2017-09-13T17:49:33.278Z,99.99
2017-09-13T17:54:28.786Z,99.99
2017-09-13T17:59:24.860Z,99.99
2017-09-13T18:04:20.594Z,99.99
2017-09-13T18:09:17.705Z,99.99
2017-09-13T18:14:15.214Z,99.99
2017-09-13T18:19:10.179Z,99.99
2017-09-13T18:24:06.851Z,99.99
2017-09-13T18:29:03.174Z,99.99
2017-09-13T18:33:58.649Z,99.99
2017-09-13T18:38:54.141Z,99.99
2017-09-13T18:43:49.962Z,99.99
2017-09-13T18:48:47.749Z,99.99
2017-09-13T18:53:43.731Z,99.99
2017-09-13T18:58:40.599Z,99.99
2017-09-13T19:03:36.912Z,99.99
2017-09-13T19:08:33.324Z,99.99
2017-09-13T19:13:28.911Z,99.99
2017-09-13T19:18:25.428Z,99.99
2017-09-13T19:23:20.932Z,99.99
2017-09-13T19:28:16.667Z,99.99
2017-09-13T19:33:12.494Z,99.99
2017-09-13T19:38:08.721Z,99.99
2017-09-13T19:43:04.502Z,99.99
2017-09-13T19:48:00.409Z,99.99
2017-09-13T19:52:56.091Z,99.99
2017-09-13T19:57:52.869Z,99.99
2017-09-13T20:02:48.500Z,99.99
2017-09-13T20:07:45.325Z,99.99
2017-09-13T20:12:41.102Z,99.99
2017-09-13T20:17:36.875Z,99.99
2017-09-13T20:22:33.662Z,99.99
2017-09-13T20:27:29.384Z,99.99
2017-09-13T20:32:26.296Z,99.99
2017-09-13T20:37:21.774Z,99.99
2017-09-13T20:42:18.554Z,99.99
2017-09-13T20:47:14.139Z,99.99
2017-09-13T20:52:10.659Z,99.99
2017-09-13T20:57:07.414Z,99.99
2017-09-13T21:02:03.359Z,99.99
2017-09-13T21:06:59.488Z,99.99
2017-09-13T21:11:55.043Z,99.99
2017-09-13T21:16:51.014Z,99.99
2017-09-13T21:21:47.048Z,99.99
2017-09-13T21:26:42.958Z,99.99
2017-09-13T21:31:38.765Z,99.99
2017-09-13T21:36:34.560Z,99.99
2017-09-13T21:41:31.242Z,99.99
2017-09-13T21:46:27.177Z,99.99
2017-09-13T21:51:22.922Z,99.99
2017-09-13T21:56:18.828Z,99.99
2017-09-13T22:01:15.624Z,99.99
2017-09-13T22:06:11.078Z,99.99
2017-09-13T22:11:06.823Z,99.99
2017-09-13T22:16:02.511Z,99.99
2017-09-13T22:20:58.142Z,99.99
2017-09-13T22:25:54.313Z,99.99
2017-09-13T22:30:50.319Z,99.99
2017-09-13T22:35:47.064Z,99.99
2017-09-13T22:40:43.406Z,99.99
2017-09-13T22:45:40.226Z,99.99
2017-09-13T22:50:36.801Z,99.99
2017-09-13T22:55:32.568Z,99.99
2017-09-13T23:00:28.530Z,99.99
2017-09-13T23:05:24.404Z,99.99
2017-09-13T23:10:20.279Z,99.99
2017-09-13T23:15:16.026Z,99.99
2017-09-13T23:20:11.798Z,99.99
2017-09-13T23:25:07.313Z,99.99
2017-09-13T23:30:02.864Z,99.99
2017-09-13T23:34:58.734Z,99.99
2017-09-13T23:39:55.057Z,99.99
2017-09-13T23:44:50.598Z,99.99
2017-09-13T23:49:46.474Z,99.99
2017-09-13T23:54:42.373Z,99.99
2017-09-13T23:59:38.192Z,99.99
